Time;durP1;ratioP1;P1;durP2;ratioP2;P2;SDS_P1;SDS_P2;PMS_P1;PMS_P2;Temp;Humidity;BMP_temperature;BMP_pressure;BME280_temperature;BME280_humidity;BME280_pressure;Samples;Min_cycle;Max_cycle;Signal;HPM_P1;HPM_P2
2022/04/30 00:02:08;;;;;;;8.45;7.60;;;9.70;39.70;;;;;;4929131;29;20029;-74
2022/04/30 00:04:40;;;;;;;11.40;7.50;;;9.70;39.90;;;;;;4932760;29;20043;-74
2022/04/30 00:07:06;;;;;;;9.32;7.45;;;9.70;40.50;;;;;;4927595;29;20119;-74
2022/04/30 00:09:33;;;;;;;7.63;6.82;;;9.60;39.90;;;;;;4930964;29;20028;-74
2022/04/30 00:12:00;;;;;;;8.45;7.13;;;9.60;39.90;;;;;;4931764;29;20827;-74
2022/04/30 00:14:26;;;;;;;8.75;7.85;;;9.50;39.80;;;;;;4930867;29;20062;-74
2022/04/30 00:16:53;;;;;;;8.90;7.43;;;9.50;39.90;;;;;;4931677;29;20027;-74
2022/04/30 00:19:21;;;;;;;8.70;6.70;;;9.50;40.00;;;;;;4933937;29;20031;-74
2022/04/30 00:21:48;;;;;;;7.30;6.60;;;9.40;39.90;;;;;;4933076;29;20024;-74
2022/04/30 00:24:14;;;;;;;9.57;7.43;;;9.40;39.90;;;;;;4933745;29;20544;-74
2022/04/30 00:26:43;;;;;;;8.20;7.22;;;9.40;40.00;;;;;;4932894;29;20039;-73
2022/04/30 00:29:10;;;;;;;8.15;7.32;;;9.30;39.90;;;;;;4934019;29;20071;-72
2022/04/30 00:31:37;;;;;;;8.55;7.45;;;9.30;40.00;;;;;;4934516;29;20039;-73
2022/04/30 00:34:04;;;;;;;8.70;7.25;;;9.30;40.10;;;;;;4934070;29;20107;-72
2022/04/30 00:36:30;;;;;;;7.93;6.97;;;9.30;40.10;;;;;;4933407;29;20388;-73
2022/04/30 00:38:56;;;;;;;7.85;7.03;;;9.30;40.20;;;;;;4930709;29;20300;-73
2022/04/30 00:41:23;;;;;;;7.57;6.88;;;9.20;40.10;;;;;;4932058;29;20061;-73
2022/04/30 00:43:53;;;;;;;7.90;6.93;;;9.20;40.10;;;;;;4929980;29;20066;-72
2022/04/30 00:46:21;;;;;;;8.95;7.95;;;9.10;40.00;;;;;;4933550;29;20050;-73
2022/04/30 00:48:47;;;;;;;8.00;7.18;;;9.10;40.10;;;;;;4935770;29;20120;-74
2022/04/30 00:51:16;;;;;;;7.95;6.68;;;9.10;40.20;;;;;;4928293;29;20114;-73
2022/04/30 00:53:49;;;;;;;8.32;6.85;;;9.00;40.00;;;;;;4932601;29;20046;-72
2022/04/30 00:56:18;;;;;;;7.93;7.13;;;9.00;40.20;;;;;;4920190;29;20051;-73
2022/04/30 00:58:47;;;;;;;7.43;6.72;;;8.90;40.00;;;;;;4926303;29;20032;-72
2022/04/30 01:01:14;;;;;;;7.07;6.47;;;8.90;40.10;;;;;;4930188;29;20036;-73
2022/04/30 01:04:19;;;;;;;8.05;7.35;;;8.90;40.20;;;;;;4924629;29;20063;-74
2022/04/30 01:06:50;;;;;;;8.02;7.22;;;8.80;40.00;;;;;;4932228;29;20039;-74
2022/04/30 01:09:20;;;;;;;8.48;6.72;;;8.80;40.10;;;;;;4920454;29;20078;-73
2022/04/30 01:11:48;;;;;;;8.00;7.18;;;8.80;40.20;;;;;;4929267;29;20028;-73
2022/04/30 01:14:17;;;;;;;8.15;6.82;;;8.80;40.20;;;;;;4931636;29;20090;-73
2022/04/30 01:16:44;;;;;;;7.25;6.55;;;8.70;40.10;;;;;;4932516;29;20066;-73
2022/04/30 01:19:18;;;;;;;7.38;6.68;;;8.70;40.20;;;;;;4932595;29;20043;-73
2022/04/30 01:21:49;;;;;;;7.47;6.68;;;8.70;40.20;;;;;;4926077;29;20059;-73
2022/04/30 01:24:20;;;;;;;7.30;6.60;;;8.60;40.10;;;;;;4931348;29;20473;-74
2022/04/30 01:26:46;;;;;;;8.25;7.32;;;8.60;40.20;;;;;;4931906;29;20032;-74
2022/04/30 01:29:11;;;;;;;8.00;7.30;;;8.60;40.20;;;;;;4923517;29;20055;-74
2022/04/30 01:37:24;;;;;;;8.13;7.32;;;8.50;40.20;;;;;;4923418;29;20042;-74
2022/04/30 01:40:11;;;;;;;7.88;7.18;;;8.50;40.30;;;;;;4935652;29;20028;-74
2022/04/30 01:42:45;;;;;;;8.95;7.35;;;8.40;40.20;;;;;;4929810;29;20517;-74
2022/04/30 01:45:12;;;;;;;7.30;6.60;;;8.40;40.20;;;;;;4928984;29;20131;-73
2022/04/30 01:47:40;;;;;;;7.75;7.05;;;8.40;40.30;;;;;;4933297;29;20055;-74
2022/04/30 01:50:08;;;;;;;8.50;6.63;;;8.40;40.40;;;;;;4933594;29;20038;-74
2022/04/30 01:52:34;;;;;;;7.40;6.65;;;8.30;40.20;;;;;;4946323;29;20024;-73
2022/04/30 01:55:00;;;;;;;7.15;6.45;;;8.30;40.30;;;;;;4945219;29;20556;-73
2022/04/30 01:57:26;;;;;;;7.63;6.85;;;8.20;40.20;;;;;;4954547;29;20040;-74
2022/04/30 01:59:53;;;;;;;8.82;6.88;;;8.20;40.30;;;;;;4946145;29;20032;-74
2022/04/30 02:02:23;;;;;;;7.57;6.88;;;8.20;40.40;;;;;;4935003;29;20431;-74
2022/04/30 02:04:52;;;;;;;7.68;7.03;;;8.20;40.50;;;;;;4934625;29;20043;-75
2022/04/30 02:07:19;;;;;;;8.80;7.30;;;8.10;40.30;;;;;;4935800;29;20628;-74
2022/04/30 02:09:47;;;;;;;8.20;7.35;;;8.10;40.40;;;;;;4935569;29;20037;-74
2022/04/30 02:12:13;;;;;;;9.15;6.80;;;8.10;40.40;;;;;;4937741;29;20044;-75
2022/04/30 02:14:42;;;;;;;7.75;6.95;;;8.10;40.40;;;;;;4954689;29;20028;-75
2022/04/30 02:17:10;;;;;;;7.10;6.40;;;8.00;40.30;;;;;;4955356;29;20016;-75
2022/04/30 02:22:22;;;;;;;10.18;7.35;;;8.00;40.40;;;;;;4951041;29;20099;-73
2022/04/30 02:24:48;;;;;;;7.97;7.28;;;8.00;40.40;;;;;;4956412;28;20020;-74
2022/04/30 02:27:15;;;;;;;9.43;7.40;;;8.00;40.50;;;;;;4938484;29;20046;-74
2022/04/30 02:29:40;;;;;;;9.57;7.93;;;7.90;40.40;;;;;;4954135;28;20032;-75
2022/04/30 02:32:07;;;;;;;9.80;7.95;;;7.90;40.40;;;;;;4948564;29;20077;-75
2022/04/30 02:34:35;;;;;;;9.60;7.80;;;7.90;40.50;;;;;;4957941;29;20051;-74
2022/04/30 02:37:03;;;;;;;10.27;8.45;;;7.90;40.60;;;;;;4956762;28;20031;-75
2022/04/30 02:39:31;;;;;;;9.15;8.25;;;7.80;40.40;;;;;;4954368;29;20031;-74
2022/04/30 02:41:56;;;;;;;8.85;8.05;;;7.90;40.70;;;;;;4950273;29;20051;-73
2022/04/30 02:44:25;;;;;;;9.52;8.00;;;7.80;40.60;;;;;;4934311;29;20036;-74
2022/04/30 02:46:54;;;;;;;7.85;7.05;;;7.80;40.60;;;;;;4913856;29;20052;-74
2022/04/30 02:49:20;;;;;;;9.73;8.32;;;7.80;40.70;;;;;;4923892;29;20150;-74
2022/04/30 02:51:46;;;;;;;9.95;8.50;;;7.70;40.60;;;;;;4932031;29;20198;-73
2022/04/30 02:54:13;;;;;;;9.95;8.90;;;7.70;40.60;;;;;;4931484;29;20202;-74
2022/04/30 02:56:39;;;;;;;10.40;8.57;;;7.70;40.70;;;;;;4926732;29;20475;-73
2022/04/30 03:02:17;;;;;;;9.20;7.63;;;7.70;40.80;;;;;;4894419;29;20167;-73
2022/04/30 03:04:51;;;;;;;8.88;7.75;;;7.70;40.80;;;;;;4910014;29;20044;-73
2022/04/30 03:07:19;;;;;;;9.63;8.63;;;7.60;40.70;;;;;;4913754;29;20087;-74
2022/04/30 03:09:47;;;;;;;12.07;8.77;;;7.60;40.70;;;;;;4931432;29;20543;-73
2022/04/30 03:12:13;;;;;;;11.35;9.05;;;7.60;40.80;;;;;;4932234;29;20074;-74
2022/04/30 03:14:41;;;;;;;9.68;8.48;;;7.60;40.90;;;;;;4932037;29;20075;-74
2022/04/30 03:22:36;;;;;;;11.50;9.00;;;7.50;40.80;;;;;;4929121;29;20028;-73
2022/04/30 03:25:02;;;;;;;11.40;9.77;;;7.50;40.80;;;;;;4925704;29;20395;-73
2022/04/30 03:27:28;;;;;;;13.25;10.27;;;7.50;40.90;;;;;;4923665;29;20024;-73
2022/04/30 03:29:54;;;;;;;12.98;9.88;;;7.40;40.80;;;;;;4931749;29;20019;-73
2022/04/30 03:32:20;;;;;;;11.57;9.68;;;7.40;40.90;;;;;;4932045;29;20038;-73
2022/04/30 03:34:47;;;;;;;10.93;9.75;;;7.40;41.00;;;;;;4931159;29;20035;-73
2022/04/30 03:37:13;;;;;;;12.05;10.13;;;7.40;41.00;;;;;;4930045;29;20431;-73
2022/04/30 03:39:39;;;;;;;11.05;9.80;;;7.40;41.10;;;;;;4924439;29;20031;-72
2022/04/30 03:42:05;;;;;;;12.40;11.07;;;7.30;41.00;;;;;;4931970;29;20067;-72
2022/04/30 03:44:32;;;;;;;12.20;10.55;;;7.30;41.00;;;;;;4919541;29;20377;-72
2022/04/30 03:46:57;;;;;;;10.90;9.65;;;7.30;41.10;;;;;;4929981;29;20575;-73
2022/04/30 03:49:23;;;;;;;12.60;10.55;;;7.30;41.20;;;;;;4914191;29;20087;-74
2022/04/30 03:51:49;;;;;;;12.68;10.48;;;7.30;41.30;;;;;;4931478;29;20066;-73
2022/04/30 03:54:15;;;;;;;13.32;10.82;;;7.20;41.10;;;;;;4934004;29;20075;-73
2022/04/30 03:56:41;;;;;;;13.90;11.23;;;7.20;41.20;;;;;;4934041;29;20119;-73
2022/04/30 03:59:08;;;;;;;12.48;10.77;;;7.10;41.00;;;;;;4935176;29;20514;-73
2022/04/30 04:01:35;;;;;;;14.32;10.38;;;7.20;41.30;;;;;;4930874;29;20035;-73
2022/04/30 04:04:01;;;;;;;13.27;10.48;;;7.20;41.30;;;;;;4935163;29;20038;-73
2022/04/30 04:06:27;;;;;;;14.40;11.45;;;7.10;41.20;;;;;;4934413;29;20066;-73
2022/04/30 04:08:53;;;;;;;12.88;10.63;;;7.10;41.30;;;;;;4931793;29;20396;-72
2022/04/30 04:11:20;;;;;;;12.07;10.77;;;7.10;41.30;;;;;;4934628;29;20027;-73
2022/04/30 04:19:18;;;;;;;11.63;10.15;;;7.10;41.40;;;;;;4934885;29;20024;-74
2022/04/30 04:21:44;;;;;;;11.43;9.90;;;7.10;41.40;;;;;;4934798;29;20067;-73
2022/04/30 04:26:54;;;;;;;11.73;10.55;;;7.00;41.30;;;;;;4934051;29;20348;-74
2022/04/30 04:29:20;;;;;;;12.55;11.32;;;7.00;41.30;;;;;;4935185;29;20176;-74
2022/04/30 04:31:46;;;;;;;11.40;9.82;;;7.00;41.40;;;;;;4951406;29;20008;-74
2022/04/30 04:34:12;;;;;;;12.30;9.95;;;7.00;41.40;;;;;;4958078;29;20038;-73
2022/04/30 04:36:39;;;;;;;12.45;10.50;;;7.00;41.50;;;;;;4955685;29;20429;-74
2022/04/30 04:39:14;;;;;;;11.40;10.25;;;7.00;41.60;;;;;;4940066;29;20035;-73
2022/04/30 04:41:44;;;;;;;12.45;10.85;;;6.90;41.50;;;;;;4935915;29;20036;-74
2022/04/30 04:44:10;;;;;;;13.25;10.70;;;6.90;41.40;;;;;;4933869;29;20645;-74
2022/04/30 04:46:38;;;;;;;12.40;10.38;;;6.90;41.40;;;;;;4934825;29;20062;-74
2022/04/30 04:49:05;;;;;;;14.32;11.23;;;6.90;41.50;;;;;;4932553;29;20416;-74
2022/04/30 04:51:32;;;;;;;13.55;10.77;;;6.90;41.60;;;;;;4925884;29;20034;-74
2022/04/30 04:53:58;;;;;;;12.43;10.88;;;6.90;41.60;;;;;;4928031;29;20465;-73
2022/04/30 04:56:23;;;;;;;12.48;10.27;;;6.90;41.60;;;;;;4926863;29;20038;-74
2022/04/30 04:58:49;;;;;;;12.02;10.82;;;7.00;41.80;;;;;;4927446;29;20025;-74
2022/04/30 05:01:15;;;;;;;13.00;10.38;;;7.00;42.50;;;;;;4918840;29;20027;-74
2022/04/30 05:03:41;;;;;;;13.27;10.63;;;7.00;41.90;;;;;;4914143;29;20036;-74
2022/04/30 05:06:07;;;;;;;11.90;10.65;;;6.90;41.70;;;;;;4914225;29;20110;-74
2022/04/30 05:08:33;;;;;;;12.80;11.20;;;7.00;42.00;;;;;;4932217;29;20183;-74
2022/04/30 05:10:59;;;;;;;13.43;10.63;;;7.00;41.90;;;;;;4932853;29;20035;-74
2022/04/30 05:13:25;;;;;;;14.77;11.25;;;7.00;41.90;;;;;;4928152;29;20043;-74
2022/04/30 05:15:51;;;;;;;13.25;10.50;;;7.00;42.00;;;;;;4931823;29;20038;-74
2022/04/30 05:18:17;;;;;;;11.60;10.43;;;7.00;41.90;;;;;;4921516;29;20110;-74
2022/04/30 05:20:42;;;;;;;13.23;10.15;;;7.10;42.10;;;;;;4925741;29;20372;-74
2022/04/30 05:23:09;;;;;;;12.73;10.77;;;7.10;42.10;;;;;;4931432;29;20043;-74
2022/04/30 05:25:36;;;;;;;12.73;11.00;;;7.10;42.10;;;;;;4927301;29;20095;-74
2022/04/30 05:28:02;;;;;;;12.40;10.75;;;7.10;42.10;;;;;;4931513;29;20047;-74
2022/04/30 05:30:27;;;;;;;14.15;11.23;;;7.10;42.00;;;;;;4927449;29;20027;-74
2022/04/30 05:32:53;;;;;;;13.00;10.32;;;7.20;42.20;;;;;;4932458;29;20048;-74
2022/04/30 05:35:19;;;;;;;11.30;9.90;;;7.20;42.20;;;;;;4933873;29;20126;-79
2022/04/30 05:37:45;;;;;;;15.27;13.65;;;7.20;42.20;;;;;;4928846;29;20036;-76
2022/04/30 05:40:11;;;;;;;17.52;14.15;;;7.30;42.40;;;;;;4926952;29;20039;-76
2022/04/30 05:42:37;;;;;;;15.20;13.07;;;7.30;42.30;;;;;;4927213;29;20032;-76
2022/04/30 05:45:03;;;;;;;17.70;13.60;;;7.30;42.40;;;;;;4923126;29;20024;-78
2022/04/30 05:47:29;;;;;;;17.45;13.20;;;7.30;42.70;;;;;;4930980;29;20077;-76
2022/04/30 05:49:55;;;;;;;14.35;12.85;;;7.40;43.00;;;;;;4934549;29;20144;-86
2022/04/30 05:52:21;;;;;;;18.20;12.75;;;7.40;43.00;;;;;;4926811;29;20388;-78
2022/04/30 05:54:47;;;;;;;15.02;12.75;;;7.50;43.10;;;;;;4929005;29;20046;-76
2022/04/30 05:57:13;;;;;;;13.07;11.70;;;7.60;43.80;;;;;;4922995;29;20083;-75
2022/04/30 05:59:39;;;;;;;13.23;11.57;;;7.60;43.30;;;;;;4934276;29;20035;-78
2022/04/30 06:02:05;;;;;;;17.05;12.60;;;7.70;43.70;;;;;;4928091;29;20144;-85
2022/04/30 06:04:31;;;;;;;13.35;11.85;;;7.90;44.10;;;;;;4922815;29;20048;-86
2022/04/30 06:06:58;;;;;;;14.77;11.38;;;8.00;44.20;;;;;;4929582;29;20043;-91
2022/04/30 06:09:25;;;;;;;16.88;12.23;;;8.20;44.90;;;;;;4938982;29;20178;-82
2022/04/30 06:11:51;;;;;;;14.23;12.63;;;8.40;45.70;;;;;;4931733;29;20453;-79
2022/04/30 06:14:17;;;;;;;16.38;12.43;;;8.70;46.60;;;;;;4924528;29;20091;-80
2022/04/30 06:16:43;;;;;;;13.43;12.02;;;9.00;47.30;;;;;;4917271;29;20165;-82
2022/04/30 06:19:09;;;;;;;14.88;12.18;;;9.50;48.10;;;;;;4927118;29;20118;-78
2022/04/30 06:21:35;;;;;;;13.30;11.82;;;9.90;49.00;;;;;;4928022;29;20027;-78
2022/04/30 06:24:01;;;;;;;17.73;11.50;;;10.40;49.10;;;;;;4920609;29;20028;-78
2022/04/30 06:26:28;;;;;;;13.23;11.82;;;10.80;49.30;;;;;;4922724;29;20071;-81
2022/04/30 06:28:55;;;;;;;13.18;10.98;;;11.20;49.20;;;;;;4922623;29;20059;-77
2022/04/30 06:31:22;;;;;;;15.05;10.30;;;11.50;49.30;;;;;;4917981;29;20187;-75
2022/04/30 06:33:49;;;;;;;17.63;13.98;;;11.70;49.00;;;;;;4919750;29;20500;-85
2022/04/30 06:36:14;;;;;;;15.38;13.77;;;11.80;48.60;;;;;;4920238;29;20035;-78
2022/04/30 06:38:40;;;;;;;16.42;14.18;;;11.80;47.80;;;;;;4926709;29;20043;-78
2022/04/30 06:41:06;;;;;;;16.55;14.32;;;11.80;48.00;;;;;;4929563;29;20027;-78
2022/04/30 06:43:32;;;;;;;17.80;13.70;;;11.80;47.70;;;;;;4930936;29;20070;-79
2022/04/30 06:45:58;;;;;;;16.30;13.70;;;11.60;46.60;;;;;;4930768;28;20063;-78
2022/04/30 06:48:24;;;;;;;15.82;14.10;;;11.70;46.70;;;;;;4924443;29;20054;-79
2022/04/30 06:50:49;;;;;;;16.17;14.48;;;11.70;46.50;;;;;;4930005;29;20555;-79
2022/04/30 06:58:50;;;;;;;15.95;13.75;;;12.50;46.00;;;;;;4921139;29;20024;-76
2022/04/30 07:04:02;;;;;;;16.55;13.40;;;13.10;45.40;;;;;;4928256;29;20115;-81
2022/04/30 07:06:29;;;;;;;13.88;12.18;;;13.40;45.30;;;;;;4927830;29;20405;-88
2022/04/30 07:08:55;;;;;;;13.75;11.43;;;13.70;45.20;;;;;;4924268;29;20060;-84
2022/04/30 07:11:22;;;;;;;13.18;11.98;;;14.10;45.20;;;;;;4933714;29;20044;-85
2022/04/30 07:13:48;;;;;;;13.55;12.15;;;14.60;45.40;;;;;;4935821;29;20035;-87
2022/04/30 07:16:14;;;;;;;15.45;13.43;;;15.20;45.40;;;;;;4935368;29;20556;-77
2022/04/30 07:18:40;;;;;;;15.50;12.85;;;15.80;45.20;;;;;;4948357;29;20099;-73
2022/04/30 07:21:06;;;;;;;12.80;11.48;;;16.40;44.90;;;;;;4946293;29;20031;-75
2022/04/30 07:23:32;;;;;;;13.23;11.75;;;17.00;44.60;;;;;;4934697;29;20032;-74
2022/04/30 07:25:58;;;;;;;14.80;13.00;;;17.60;44.30;;;;;;4931962;29;20047;-74
2022/04/30 07:28:25;;;;;;;13.27;11.40;;;18.10;44.10;;;;;;4933357;29;20385;-74
2022/04/30 07:30:51;;;;;;;12.10;11.00;;;18.50;43.80;;;;;;4932176;29;20059;-74
2022/04/30 07:33:17;;;;;;;12.05;10.85;;;18.80;43.80;;;;;;4930666;29;20086;-74
2022/04/30 07:35:42;;;;;;;12.98;11.18;;;18.80;43.80;;;;;;4924849;29;20066;-75
2022/04/30 07:38:08;;;;;;;11.57;10.55;;;18.80;44.00;;;;;;4931838;29;20044;-74
2022/04/30 07:40:35;;;;;;;13.57;11.18;;;18.70;44.00;;;;;;4935202;29;20154;-74
2022/04/30 07:43:02;;;;;;;11.35;9.82;;;18.60;44.00;;;;;;4934539;29;20462;-74
2022/04/30 07:45:30;;;;;;;10.90;9.73;;;18.40;43.90;;;;;;4935770;29;20089;-75
2022/04/30 07:47:55;;;;;;;11.05;10.05;;;18.30;43.90;;;;;;4934936;29;20052;-73
2022/04/30 07:50:23;;;;;;;11.93;10.10;;;18.20;43.90;;;;;;4927719;29;20175;-78
2022/04/30 07:52:49;;;;;;;11.65;9.65;;;18.10;43.80;;;;;;4933562;29;20119;-77
2022/04/30 07:55:15;;;;;;;10.40;9.15;;;18.00;43.70;;;;;;4927729;29;20042;-76
2022/04/30 07:57:41;;;;;;;10.80;9.63;;;17.90;43.50;;;;;;4931490;29;20110;-74
2022/04/30 08:00:07;;;;;;;10.05;9.07;;;17.90;43.50;;;;;;4933962;29;20569;-76
2022/04/30 08:02:34;;;;;;;10.00;9.00;;;18.00;43.20;;;;;;4933136;29;20223;-74
2022/04/30 08:05:01;;;;;;;10.27;9.10;;;18.20;42.80;;;;;;4925270;29;20130;-74
2022/04/30 08:07:27;;;;;;;8.95;7.93;;;18.50;42.40;;;;;;4929023;29;20254;-74
2022/04/30 08:09:53;;;;;;;9.98;9.05;;;18.90;42.10;;;;;;4931466;29;20637;-74
2022/04/30 08:12:19;;;;;;;9.73;8.00;;;19.10;41.60;;;;;;4929418;29;20447;-74
2022/04/30 08:14:47;;;;;;;8.82;7.93;;;19.10;41.00;;;;;;4932205;29;20047;-76
2022/04/30 08:17:13;;;;;;;9.90;8.07;;;19.10;41.00;;;;;;4931605;29;20112;-74
2022/04/30 08:19:40;;;;;;;7.63;6.90;;;18.90;41.00;;;;;;4933160;29;20053;-75
2022/04/30 08:22:06;;;;;;;7.95;7.00;;;18.70;41.00;;;;;;4931572;29;20035;-77
2022/04/30 08:24:32;;;;;;;10.15;7.80;;;18.40;40.90;;;;;;4936591;29;20046;-76
2022/04/30 08:26:59;;;;;;;7.57;6.78;;;18.20;40.90;;;;;;4921930;29;20038;-77
2022/04/30 08:29:28;;;;;;;7.30;6.60;;;18.00;40.90;;;;;;4931084;29;20028;-81
2022/04/30 08:31:55;;;;;;;17.20;7.72;;;17.80;40.80;;;;;;4934544;29;20028;-79
2022/04/30 08:34:21;;;;;;;7.57;6.88;;;17.70;40.80;;;;;;4931463;29;20047;-79
2022/04/30 08:36:48;;;;;;;8.05;6.47;;;17.70;41.00;;;;;;4928686;29;20034;-76
2022/04/30 08:39:14;;;;;;;7.28;6.65;;;17.60;40.90;;;;;;4928901;29;20035;-76
2022/04/30 08:41:42;;;;;;;7.03;6.43;;;17.50;40.70;;;;;;4924191;29;20031;-79
2022/04/30 08:44:16;;;;;;;7.15;6.05;;;17.50;40.70;;;;;;4931710;29;20053;-79
2022/04/30 08:46:44;;;;;;;7.75;6.97;;;17.50;40.60;;;;;;4924870;29;20060;-79
2022/04/30 08:49:10;;;;;;;8.73;7.78;;;17.50;40.60;;;;;;4927784;29;20432;-79
2022/04/30 08:51:36;;;;;;;8.40;7.07;;;17.50;40.60;;;;;;4921638;29;20071;-77
2022/04/30 08:54:02;;;;;;;7.15;6.43;;;17.50;40.50;;;;;;4926652;29;20044;-79
2022/04/30 08:56:28;;;;;;;9.23;6.68;;;17.60;40.60;;;;;;4929296;29;20063;-77
2022/04/30 08:59:03;;;;;;;9.07;7.55;;;17.50;40.30;;;;;;4929760;29;20040;-79
2022/04/30 09:01:29;;;;;;;6.88;6.28;;;17.60;40.30;;;;;;4930602;29;20095;-77
2022/04/30 09:03:56;;;;;;;6.40;5.80;;;17.60;40.30;;;;;;4929027;29;20071;-79
2022/04/30 09:06:24;;;;;;;6.65;5.55;;;17.70;40.30;;;;;;4929154;29;20066;-78
2022/04/30 09:08:51;;;;;;;7.18;6.47;;;17.70;40.10;;;;;;4929595;29;20036;-75
2022/04/30 09:11:26;;;;;;;6.90;6.28;;;17.80;40.10;;;;;;4928306;29;20102;-80
2022/04/30 09:13:52;;;;;;;7.05;6.35;;;17.90;40.20;;;;;;4929655;29;20139;-79
2022/04/30 09:16:23;;;;;;;6.20;5.50;;;17.90;40.10;;;;;;4923830;29;20071;-75
2022/04/30 09:18:51;;;;;;;7.78;6.57;;;18.00;40.00;;;;;;4924564;29;20044;-76
2022/04/30 09:21:17;;;;;;;6.22;5.72;;;18.00;39.90;;;;;;4919011;29;20111;-77
2022/04/30 09:23:45;;;;;;;6.53;5.93;;;18.10;39.90;;;;;;4936702;29;20032;-77
2022/04/30 09:26:11;;;;;;;6.18;5.57;;;18.20;39.90;;;;;;4924369;29;20688;-78
2022/04/30 09:28:39;;;;;;;7.75;6.32;;;18.20;39.80;;;;;;4929339;29;20062;-76
2022/04/30 09:31:12;;;;;;;7.30;6.03;;;18.30;39.90;;;;;;4929106;29;20039;-78
2022/04/30 09:34:00;;;;;;;7.00;6.30;;;18.40;39.90;;;;;;4908860;29;20440;-75
2022/04/30 09:39:16;;;;;;;8.63;6.35;;;18.50;39.80;;;;;;4923930;29;20028;-75
2022/04/30 09:41:42;;;;;;;7.43;6.72;;;18.60;39.80;;;;;;4915190;29;20118;-75
2022/04/30 09:44:12;;;;;;;6.25;5.70;;;18.70;39.80;;;;;;4929169;29;20150;-75
2022/04/30 09:46:40;;;;;;;6.00;5.43;;;18.70;39.70;;;;;;4929386;29;20052;-75
2022/04/30 09:54:40;;;;;;;6.32;5.72;;;19.00;39.80;;;;;;4926506;29;20067;-77
2022/04/30 09:57:09;;;;;;;6.35;5.75;;;19.10;39.90;;;;;;4915045;29;20028;-78
2022/04/30 09:59:40;;;;;;;7.78;6.15;;;19.10;39.70;;;;;;4926335;29;20071;-76
2022/04/30 10:02:08;;;;;;;5.28;4.78;;;19.20;39.70;;;;;;4929573;29;20484;-76
2022/04/30 10:04:36;;;;;;;7.10;6.47;;;19.30;39.70;;;;;;4921684;29;20087;-79
2022/04/30 10:07:04;;;;;;;8.00;6.43;;;19.40;39.70;;;;;;4929440;29;20035;-78
2022/04/30 10:09:38;;;;;;;7.10;5.80;;;19.40;39.50;;;;;;4922209;29;20134;-77
2022/04/30 10:12:14;;;;;;;6.15;5.45;;;19.50;39.40;;;;;;4920604;29;20115;-77
2022/04/30 10:14:43;;;;;;;6.78;5.97;;;19.60;39.40;;;;;;4927303;29;20044;-80
2022/04/30 10:17:12;;;;;;;9.60;6.97;;;19.70;39.60;;;;;;4929117;29;20039;-77
2022/04/30 10:19:39;;;;;;;6.47;5.47;;;19.70;40.10;;;;;;4928189;29;20123;-79
2022/04/30 10:22:15;;;;;;;6.20;5.57;;;19.80;39.60;;;;;;4927779;29;20035;-78
2022/04/30 10:24:44;;;;;;;6.93;6.25;;;19.90;39.50;;;;;;4915828;29;20721;-78
2022/04/30 10:27:09;;;;;;;7.07;5.20;;;19.90;39.40;;;;;;4929319;29;20043;-77
2022/04/30 10:29:35;;;;;;;7.55;6.55;;;20.00;39.50;;;;;;4929230;29;20271;-76
2022/04/30 10:32:01;;;;;;;7.03;6.32;;;20.00;39.40;;;;;;4925754;29;20087;-76
2022/04/30 10:34:34;;;;;;;5.72;5.22;;;20.20;39.60;;;;;;4930654;29;20047;-77
2022/04/30 10:37:02;;;;;;;6.10;5.15;;;20.30;39.50;;;;;;4928652;29;20040;-77
2022/04/30 10:39:28;;;;;;;5.75;5.15;;;20.40;39.60;;;;;;4927787;29;20031;-75
2022/04/30 10:41:54;;;;;;;5.13;4.72;;;20.50;39.60;;;;;;4908411;29;20061;-79
2022/04/30 10:44:31;;;;;;;6.05;5.45;;;20.60;39.60;;;;;;4925059;29;20519;-76
2022/04/30 10:47:20;;;;;;;6.07;5.47;;;20.70;39.40;;;;;;4926764;29;20051;-77
2022/04/30 10:49:46;;;;;;;5.07;4.68;;;20.80;39.40;;;;;;4916611;29;20027;-76
2022/04/30 10:52:21;;;;;;;5.90;5.28;;;20.90;39.60;;;;;;4928678;29;20089;-77
2022/04/30 10:54:49;;;;;;;5.55;4.60;;;20.90;39.30;;;;;;4926879;29;20043;-90
2022/04/30 10:57:15;;;;;;;5.53;5.00;;;21.00;39.40;;;;;;4913531;29;20123;-80
2022/04/30 10:59:43;;;;;;;6.53;5.93;;;21.10;39.40;;;;;;4930735;29;20122;-86
2022/04/30 11:02:15;;;;;;;6.93;6.22;;;21.10;39.00;;;;;;4939862;29;20222;-78
2022/04/30 11:04:44;;;;;;;6.30;5.80;;;21.00;38.50;;;;;;4951649;29;20050;-83
2022/04/30 11:07:10;;;;;;;6.78;6.07;;;20.90;38.20;;;;;;4943006;29;20104;-77
2022/04/30 11:09:43;;;;;;;8.00;6.55;;;20.80;38.00;;;;;;4948492;28;20050;-77
2022/04/30 11:12:14;;;;;;;7.43;6.70;;;20.70;37.60;;;;;;4943146;29;20047;-77
2022/04/30 11:14:41;;;;;;;7.55;6.10;;;20.70;37.70;;;;;;4947100;29;20043;-76
2022/04/30 11:17:06;;;;;;;7.50;6.68;;;20.60;37.50;;;;;;4939153;29;20028;-78
2022/04/30 11:19:41;;;;;;;7.22;6.40;;;20.60;37.50;;;;;;4930270;29;20032;-78
2022/04/30 11:22:11;;;;;;;8.80;6.75;;;20.50;37.20;;;;;;4923594;29;20042;-76
2022/04/30 11:24:37;;;;;;;7.68;6.75;;;20.50;37.30;;;;;;4927509;29;20138;-79
2022/04/30 11:27:08;;;;;;;7.97;6.90;;;20.50;37.30;;;;;;4926553;29;20184;-76
2022/04/30 11:29:46;;;;;;;6.90;6.30;;;20.50;37.80;;;;;;4928072;29;20043;-79
2022/04/30 11:32:20;;;;;;;6.75;6.15;;;20.60;37.30;;;;;;4907695;29;20032;-81
2022/04/30 11:34:47;;;;;;;7.60;6.90;;;20.60;37.30;;;;;;4926345;29;20051;-78
2022/04/30 11:37:13;;;;;;;7.05;6.38;;;20.60;37.10;;;;;;4939740;29;20080;-78
2022/04/30 11:39:39;;;;;;;7.75;7.00;;;20.60;37.00;;;;;;4947260;29;20032;-79
2022/04/30 11:42:05;;;;;;;7.32;6.65;;;20.60;36.90;;;;;;4950647;29;20030;-77
2022/04/30 11:44:31;;;;;;;7.97;6.38;;;20.70;37.00;;;;;;4949855;29;20047;-77
2022/04/30 11:46:56;;;;;;;6.95;6.25;;;20.70;36.90;;;;;;4944436;28;20070;-80
2022/04/30 11:49:24;;;;;;;7.35;6.00;;;20.70;36.80;;;;;;4961434;28;20051;-79
2022/04/30 11:51:52;;;;;;;9.00;5.95;;;20.70;36.80;;;;;;4952579;28;20020;-85
2022/04/30 11:54:20;;;;;;;6.57;6.00;;;20.80;36.90;;;;;;4951737;28;20046;-86
2022/04/30 11:56:47;;;;;;;6.97;6.38;;;20.90;37.10;;;;;;4934552;28;20084;-85
2022/04/30 11:59:13;;;;;;;6.85;6.00;;;20.90;37.00;;;;;;4946854;29;20163;-87
2022/04/30 12:01:40;;;;;;;7.60;5.45;;;21.00;37.00;;;;;;4926726;29;20180;-88
2022/04/30 12:04:09;;;;;;;6.03;5.43;;;21.10;37.00;;;;;;4930815;29;20067;-91
2022/04/30 12:06:36;;;;;;;6.85;6.15;;;21.00;36.60;;;;;;4939404;29;20024;-81
2022/04/30 12:09:16;;;;;;;7.20;6.10;;;21.10;36.60;;;;;;4931126;29;20032;-76
2022/04/30 12:11:51;;;;;;;5.93;5.22;;;21.20;36.50;;;;;;4926341;29;20119;-79
2022/04/30 12:14:18;;;;;;;6.38;5.38;;;21.30;36.70;;;;;;4930261;29;20036;-79
2022/04/30 12:16:45;;;;;;;5.70;5.10;;;21.40;36.80;;;;;;4924448;29;20027;-75
2022/04/30 12:25:09;;;;;;;6.38;4.32;;;21.80;37.10;;;;;;4926680;29;20587;-76
2022/04/30 12:27:36;;;;;;;4.95;4.45;;;21.90;37.10;;;;;;4930054;29;20051;-75
2022/04/30 12:30:14;;;;;;;4.00;3.60;;;21.90;36.90;;;;;;4919273;29;20028;-78
2022/04/30 12:33:06;;;;;;;5.15;4.40;;;22.00;36.40;;;;;;4933831;29;20032;-76
2022/04/30 12:35:40;;;;;;;4.22;3.78;;;22.00;35.90;;;;;;4928191;29;20377;-78
2022/04/30 12:38:16;;;;;;;7.18;6.25;;;22.10;36.20;;;;;;4930575;29;20058;-78
2022/04/30 12:40:45;;;;;;;8.85;8.05;;;22.20;36.20;;;;;;4929545;29;20032;-76
2022/04/30 12:43:11;;;;;;;13.02;9.65;;;22.30;36.40;;;;;;4920734;29;20034;-77
2022/04/30 12:45:40;;;;;;;11.60;8.27;;;22.40;36.80;;;;;;4927453;29;20091;-78
2022/04/30 12:48:06;;;;;;;9.57;8.65;;;22.50;37.50;;;;;;4925039;29;20043;-77
2022/04/30 12:50:33;;;;;;;9.40;8.13;;;22.50;36.80;;;;;;4922925;29;20046;-76
2022/04/30 12:52:59;;;;;;;9.82;8.82;;;22.60;37.00;;;;;;4927414;29;20063;-75
2022/04/30 12:55:26;;;;;;;9.27;8.30;;;22.60;37.00;;;;;;4928871;29;20111;-78
2022/04/30 12:57:51;;;;;;;9.13;8.23;;;22.70;37.10;;;;;;4930880;29;20054;-76
2022/04/30 13:00:18;;;;;;;9.75;8.20;;;22.70;37.00;;;;;;4931034;29;20035;-76
2022/04/30 13:02:45;;;;;;;10.88;9.98;;;22.80;37.10;;;;;;4930285;29;20399;-77
2022/04/30 13:05:12;;;;;;;10.80;9.70;;;22.90;37.20;;;;;;4930761;29;20038;-76
2022/04/30 13:07:41;;;;;;;12.02;10.38;;;22.90;37.10;;;;;;4913273;29;20055;-76
2022/04/30 13:15:39;;;;;;;10.90;9.75;;;23.20;37.50;;;;;;4935412;29;20404;-81
2022/04/30 13:18:06;;;;;;;10.93;9.82;;;23.20;37.50;;;;;;4924139;29;20047;-78
2022/04/30 13:20:32;;;;;;;10.18;9.18;;;23.30;37.50;;;;;;4924671;29;20028;-78
2022/04/30 13:22:58;;;;;;;11.18;9.98;;;23.40;37.60;;;;;;4933289;29;20384;-78
2022/04/30 13:25:24;;;;;;;12.45;9.77;;;23.50;37.70;;;;;;4927503;29;20284;-78
2022/04/30 13:27:50;;;;;;;13.07;11.02;;;23.60;37.70;;;;;;4924526;29;20086;-78
2022/04/30 13:30:18;;;;;;;12.02;10.82;;;23.60;37.50;;;;;;4932016;29;20055;-78
2022/04/30 13:32:48;;;;;;;13.70;10.30;;;23.70;37.60;;;;;;4932175;29;20036;-82
2022/04/30 13:35:18;;;;;;;11.88;10.68;;;23.80;37.70;;;;;;4926990;29;20040;-78
2022/04/30 13:37:45;;;;;;;11.10;9.98;;;23.90;37.80;;;;;;4926541;29;20454;-78
2022/04/30 13:40:12;;;;;;;12.00;9.68;;;23.90;37.60;;;;;;4925365;29;20035;-79